createdAt,value
2023-02-03T00:00:28.945Z,100984.84
2023-02-03T00:03:20.261Z,100974.90
2023-02-03T00:05:49.430Z,100972.33
2023-02-03T00:08:23.068Z,100970.27
2023-02-03T00:10:53.960Z,100974.21
2023-02-03T00:13:26.757Z,100971.63
2023-02-03T00:15:55.875Z,100973.86
2023-02-03T00:18:27.055Z,100976.95
2023-02-03T00:20:58.201Z,100970.42
2023-02-03T00:23:30.287Z,100972.49
2023-02-03T00:26:10.694Z,100967.68
2023-02-03T00:28:45.671Z,100966.30
2023-02-03T00:31:24.432Z,100964.95
2023-02-03T00:34:03.824Z,100964.78
2023-02-03T00:36:32.508Z,100964.28
2023-02-03T00:39:02.017Z,100968.74
2023-02-03T00:41:34.364Z,100970.64
2023-02-03T00:44:08.576Z,100969.61
2023-02-03T00:46:39.714Z,100964.65
2023-02-03T00:49:08.395Z,100964.64
2023-02-03T00:51:46.006Z,100966.52
2023-02-03T00:54:16.982Z,100961.36
2023-02-03T00:56:45.996Z,100952.62
2023-02-03T00:59:17.490Z,100951.77
2023-02-03T01:01:56.316Z,100944.39
2023-02-03T01:04:25.329Z,100945.42
2023-02-03T01:06:58.376Z,100945.11
2023-02-03T01:09:27.189Z,100941.50
2023-02-03T01:11:55.867Z,100940.48
2023-02-03T01:14:28.119Z,100934.62
2023-02-03T01:17:06.882Z,100932.02
2023-02-03T01:19:35.630Z,100926.49
2023-02-03T01:22:04.128Z,100922.70
2023-02-03T01:24:35.652Z,100920.95
2023-02-03T01:27:06.302Z,100918.69
2023-02-03T01:29:34.845Z,100915.55
2023-02-03T01:32:03.938Z,100908.80
2023-02-03T01:34:45.041Z,100903.61
2023-02-03T01:37:17.223Z,100898.80
2023-02-03T01:39:59.928Z,100892.45
2023-02-03T01:42:33.861Z,100887.64
2023-02-03T01:45:08.909Z,100888.46
2023-02-03T01:47:47.170Z,100880.40
2023-02-03T01:50:38.668Z,100868.36
2023-02-03T01:53:12.562Z,100862.85
2023-02-03T01:55:47.174Z,100854.27
2023-02-03T01:58:28.431Z,100850.39
2023-02-03T02:00:58.827Z,100842.23
2023-02-03T02:03:38.387Z,100830.31
2023-02-03T02:06:10.688Z,100823.51
2023-02-03T02:08:42.410Z,100812.55
2023-02-03T02:11:10.832Z,100801.09
2023-02-03T02:13:49.521Z,100796.83
2023-02-03T02:16:50.506Z,100784.63
2023-02-03T02:19:46.773Z,100776.73
2023-02-03T02:23:01.824Z,100775.52
2023-02-03T02:26:11.501Z,100776.20
2023-02-03T02:29:15.278Z,100787.17
2023-02-03T02:32:15.229Z,100790.11
2023-02-03T02:35:16.809Z,100793.57
2023-02-03T02:38:11.317Z,100793.05
2023-02-03T02:41:08.507Z,100787.21
2023-02-03T02:44:37.780Z,100782.73
2023-02-03T02:47:22.741Z,100789.05
2023-02-03T02:50:12.031Z,100776.67
2023-02-03T02:52:44.775Z,100765.47
2023-02-03T02:55:44.767Z,100761.64
2023-02-03T02:58:21.777Z,100748.37
2023-02-03T03:00:51.617Z,100741.45
2023-02-03T03:03:29.175Z,100728.70
2023-02-03T03:06:07.300Z,100721.80
2023-02-03T03:08:55.991Z,100713.16
2023-02-03T03:11:32.379Z,100714.63
2023-02-03T03:14:03.003Z,100707.38
2023-02-03T03:16:50.489Z,100696.85
2023-02-03T03:19:24.930Z,100686.34
2023-02-03T03:22:02.546Z,100674.11
2023-02-03T03:24:37.998Z,100671.33
2023-02-03T03:27:14.314Z,100662.55
2023-02-03T03:29:48.477Z,100659.92
2023-02-03T03:32:17.480Z,100664.73
2023-02-03T03:34:46.285Z,100665.56
2023-02-03T03:37:28.939Z,100662.41
2023-02-03T03:40:09.247Z,100658.23
2023-02-03T03:43:08.467Z,100656.80
2023-02-03T03:46:06.689Z,100651.05
2023-02-03T03:48:52.455Z,100652.67
2023-02-03T03:51:49.508Z,100661.54
2023-02-03T03:54:23.025Z,100664.02
2023-02-03T03:57:03.629Z,100663.61
2023-02-03T03:59:36.218Z,100657.69
2023-02-03T04:02:05.269Z,100655.56
2023-02-03T04:04:39.005Z,100655.64
2023-02-03T04:07:07.544Z,100649.90
2023-02-03T04:09:40.144Z,100647.59
2023-02-03T04:12:24.752Z,100638.77
2023-02-03T04:14:53.461Z,100639.89
2023-02-03T04:17:22.105Z,100634.00
2023-02-03T04:19:50.568Z,100633.94
2023-02-03T04:22:19.132Z,100634.59
2023-02-03T04:24:47.642Z,100638.65
2023-02-03T04:27:16.400Z,100631.38
2023-02-03T04:29:44.905Z,100627.34
2023-02-03T04:32:13.261Z,100618.17
2023-02-03T04:34:41.898Z,100611.94
2023-02-03T04:37:10.308Z,100604.13
2023-02-03T04:39:38.802Z,100601.65
2023-02-03T04:42:07.300Z,100593.16
2023-02-03T04:44:35.715Z,100587.63
2023-02-03T04:47:04.187Z,100580.03
2023-02-03T04:49:32.829Z,100578.94
2023-02-03T04:52:01.577Z,100568.73
2023-02-03T04:54:30.095Z,100558.55
2023-02-03T04:56:58.775Z,100550.56
2023-02-03T04:59:27.996Z,100543.46
2023-02-03T05:01:56.427Z,100548.76
2023-02-03T05:04:25.077Z,100550.42
2023-02-03T05:06:53.607Z,100542.98
2023-02-03T05:09:22.441Z,100541.20
2023-02-03T05:11:51.575Z,100537.71
2023-02-03T05:14:20.595Z,100528.59
2023-02-03T05:17:09.173Z,100528.73
2023-02-03T05:19:37.667Z,100521.99
2023-02-03T05:22:06.178Z,100522.66
2023-02-03T05:24:34.609Z,100517.48
2023-02-03T05:27:03.110Z,100513.14
2023-02-03T05:29:31.570Z,100509.00
2023-02-03T05:32:00.087Z,100504.15
2023-02-03T05:34:28.568Z,100507.41
2023-02-03T05:36:57.044Z,100498.13
2023-02-03T05:39:25.758Z,100495.84
2023-02-03T05:41:55.913Z,100492.55
2023-02-03T05:44:28.904Z,100488.23
2023-02-03T05:46:59.460Z,100482.52
2023-02-03T05:49:28.033Z,100481.95
2023-02-03T05:51:57.336Z,100477.12
2023-02-03T05:54:25.946Z,100479.80
2023-02-03T05:56:54.434Z,100477.19
2023-02-03T05:59:22.859Z,100480.09
2023-02-03T06:01:51.372Z,100470.81
2023-02-03T06:04:19.979Z,100462.40
2023-02-03T06:06:48.431Z,100456.52
2023-02-03T06:09:16.976Z,100450.53
2023-02-03T06:11:46.305Z,100447.42
2023-02-03T06:14:14.718Z,100443.33
2023-02-03T06:16:43.237Z,100438.70
2023-02-03T06:19:11.825Z,100431.09
2023-02-03T06:21:40.337Z,100425.23
2023-02-03T06:24:10.213Z,100417.94
2023-02-03T06:26:38.602Z,100410.67
2023-02-03T06:29:06.998Z,100409.74
2023-02-03T06:31:35.548Z,100402.63
2023-02-03T06:34:04.092Z,100398.93
2023-02-03T06:36:32.487Z,100398.84
2023-02-03T06:39:00.864Z,100392.02
2023-02-03T06:41:30.739Z,100386.23
2023-02-03T06:43:59.434Z,100381.95
2023-02-03T06:46:30.293Z,100377.20
2023-02-03T06:48:58.915Z,100365.58
2023-02-03T06:51:27.485Z,100360.14
2023-02-03T06:54:15.664Z,100353.27
2023-02-03T06:56:44.440Z,100342.78
2023-02-03T06:59:13.537Z,100334.01
2023-02-03T07:01:42.033Z,100323.00
2023-02-03T07:04:11.872Z,100313.61
2023-02-03T07:06:42.777Z,100303.76
2023-02-03T07:09:11.621Z,100301.66
2023-02-03T07:11:40.455Z,100293.37
2023-02-03T07:14:08.826Z,100290.77
2023-02-03T07:16:37.641Z,100285.09
2023-02-03T07:19:06.355Z,100282.13
2023-02-03T07:21:35.084Z,100272.98
2023-02-03T07:24:03.874Z,100270.88
2023-02-03T07:26:32.227Z,100262.58
2023-02-03T07:29:00.932Z,100254.10
2023-02-03T07:31:29.586Z,100247.33
2023-02-03T07:33:58.252Z,100236.80
2023-02-03T07:36:28.202Z,100229.02
2023-02-03T07:38:56.710Z,100223.13
2023-02-03T07:41:25.171Z,100223.55
2023-02-03T07:43:53.616Z,100216.60
2023-02-03T07:46:22.192Z,100208.24
2023-02-03T07:48:50.676Z,100204.57
2023-02-03T07:51:19.265Z,100198.96
2023-02-03T07:53:47.675Z,100185.88
2023-02-03T07:56:16.072Z,100180.86
2023-02-03T07:58:44.459Z,100168.40
2023-02-03T08:01:16.576Z,100161.98
2023-02-03T08:03:45.105Z,100155.85
2023-02-03T08:06:16.170Z,100146.56
2023-02-03T08:08:47.562Z,100135.20
2023-02-03T08:11:16.015Z,100127.69
2023-02-03T08:13:44.465Z,100119.19
2023-02-03T08:16:12.934Z,100121.20
2023-02-03T08:18:41.524Z,100108.34
2023-02-03T08:21:09.916Z,100103.38
2023-02-03T08:23:38.495Z,100095.84
2023-02-03T08:26:06.972Z,100084.21
2023-02-03T08:28:35.387Z,100079.56
2023-02-03T08:31:22.212Z,100072.48
2023-02-03T08:34:09.501Z,100061.19
2023-02-03T08:48:20.450Z,100036.54
2023-02-03T08:50:53.027Z,100028.73
2023-02-03T08:53:27.420Z,100021.60
2023-02-03T08:55:57.178Z,100020.89
2023-02-03T08:58:28.869Z,100015.73
2023-02-03T09:01:06.617Z,100006.98
2023-02-03T09:03:35.702Z,99997.17
2023-02-03T09:06:05.802Z,99986.95
2023-02-03T09:08:34.351Z,99982.73
2023-02-03T09:11:02.993Z,99985.53
2023-02-03T09:13:33.020Z,99990.18
2023-02-03T09:16:01.701Z,99985.15
2023-02-03T09:18:30.089Z,99979.56
2023-02-03T09:21:08.114Z,99974.65
2023-02-03T09:23:36.705Z,99962.55
2023-02-03T09:26:07.921Z,99953.52
2023-02-03T09:28:36.786Z,99947.02
2023-02-03T09:31:12.461Z,99943.12
2023-02-03T09:33:41.335Z,99929.36
2023-02-03T09:36:11.024Z,99919.77
2023-02-03T09:38:39.686Z,99916.98
2023-02-03T09:41:12.074Z,99916.02
2023-02-03T09:44:03.559Z,99915.15
2023-02-03T09:47:09.625Z,99908.31
2023-02-03T09:49:43.890Z,99895.16
2023-02-03T09:52:19.932Z,99887.55
2023-02-03T09:55:40.905Z,99878.64
2023-02-03T09:58:21.326Z,99864.89
2023-02-03T10:01:01.778Z,99859.87
2023-02-03T10:03:53.921Z,99856.38
2023-02-03T10:06:31.645Z,99852.94
2023-02-03T10:09:44.735Z,99850.58
2023-02-03T10:12:29.653Z,99840.42
2023-02-03T10:15:28.035Z,99830.48
2023-02-03T10:18:06.357Z,99817.77
2023-02-03T10:20:43.120Z,99806.41
2023-02-03T10:23:35.261Z,99804.42
2023-02-03T10:26:09.018Z,99793.59
2023-02-03T10:28:55.098Z,99780.95
2023-02-03T10:31:27.746Z,99767.61
2023-02-03T10:34:22.990Z,99758.33
2023-02-03T10:36:55.219Z,99746.79
2023-02-03T10:39:47.622Z,99746.05
2023-02-03T10:42:17.580Z,99739.58
2023-02-03T10:44:54.134Z,99725.92
2023-02-03T10:47:39.434Z,99712.45
2023-02-03T10:50:31.401Z,99696.92
2023-02-03T10:53:17.967Z,99679.19
2023-02-03T10:55:51.012Z,99667.95
2023-02-03T10:58:31.689Z,99650.10
2023-02-03T11:01:16.338Z,99644.56
2023-02-03T11:04:04.312Z,99636.10
2023-02-03T11:06:34.494Z,99628.70
2023-02-03T11:09:27.350Z,99625.44
2023-02-03T11:12:14.982Z,99619.92
2023-02-03T11:14:50.070Z,99616.28
2023-02-03T11:17:29.980Z,99609.66
2023-02-03T11:20:14.605Z,99598.58
2023-02-03T11:22:44.859Z,99583.72
2023-02-03T11:25:20.617Z,99573.59
2023-02-03T11:27:49.317Z,99568.00
2023-02-03T11:30:26.575Z,99556.98
2023-02-03T11:32:56.308Z,99548.04
2023-02-03T11:35:27.260Z,99538.42
2023-02-03T11:37:59.093Z,99535.30
2023-02-03T11:40:33.990Z,99529.76
2023-02-03T11:43:18.961Z,99532.11
2023-02-03T11:45:59.433Z,99526.84
2023-02-03T11:48:57.547Z,99512.64
2023-02-03T11:51:55.860Z,99514.24
2023-02-03T11:54:45.493Z,99493.73
2023-02-03T11:57:30.620Z,99482.98
2023-02-03T12:00:18.770Z,99480.05
2023-02-03T12:03:19.503Z,99478.42
2023-02-03T12:06:15.533Z,99472.15
2023-02-03T12:09:08.133Z,99463.19
2023-02-03T12:12:12.086Z,99460.83
2023-02-03T12:15:22.410Z,99443.26
2023-02-03T12:18:11.967Z,99434.09
2023-02-03T12:20:57.652Z,99439.46
2023-02-03T12:23:47.875Z,99435.47
2023-02-03T12:26:25.208Z,99431.96
2023-02-03T12:29:04.536Z,99434.99
2023-02-03T12:32:32.264Z,99424.63
2023-02-03T12:35:32.088Z,99406.55
2023-02-03T12:38:22.355Z,99396.52
2023-02-03T12:40:59.938Z,99391.24
2023-02-03T12:43:50.752Z,99384.33
2023-02-03T12:46:35.275Z,99380.36
2023-02-03T12:49:31.423Z,99380.63
2023-02-03T12:52:17.759Z,99379.09
2023-02-03T12:55:08.162Z,99378.34
2023-02-03T12:57:44.127Z,99363.41
2023-02-03T13:00:35.227Z,99358.44
2023-02-03T13:03:26.107Z,99348.12
2023-02-03T13:06:22.714Z,99338.40
2023-02-03T13:09:14.931Z,99335.06
2023-02-03T13:12:08.982Z,99334.86
2023-02-03T13:14:42.638Z,99324.41
2023-02-03T13:17:47.581Z,99325.17
2023-02-03T13:20:21.435Z,99324.33
2023-02-03T13:22:51.248Z,99319.40
2023-02-03T13:25:56.034Z,99316.34
2023-02-03T13:28:53.552Z,99310.10
2023-02-03T13:31:35.840Z,99313.03
2023-02-03T13:34:32.142Z,99313.14
2023-02-03T13:37:05.226Z,99317.73
2023-02-03T13:39:50.287Z,99312.17
2023-02-03T13:42:34.279Z,99321.59
2023-02-03T13:45:36.297Z,99327.95
2023-02-03T13:48:20.855Z,99322.61
2023-02-03T13:51:01.493Z,99331.29
2023-02-03T13:53:36.551Z,99336.92
2023-02-03T13:56:09.334Z,99331.81
2023-02-03T13:58:39.784Z,99333.63
2023-02-03T14:01:35.819Z,99338.59
2023-02-03T14:04:09.566Z,99329.88
2023-02-03T14:06:41.586Z,99316.36
2023-02-03T14:09:23.448Z,99330.35
2023-02-03T14:12:17.235Z,99349.63
2023-02-03T14:15:20.706Z,99356.23
2023-02-03T14:17:52.236Z,99355.42
2023-02-03T14:20:34.470Z,99357.72
2023-02-03T14:23:13.947Z,99357.08
2023-02-03T14:25:48.375Z,99353.95
2023-02-03T14:28:39.275Z,99362.25
2023-02-03T14:31:23.856Z,99357.98
2023-02-03T14:34:08.740Z,99368.75
2023-02-03T14:36:46.651Z,99365.80
2023-02-03T14:39:33.954Z,99363.14
2023-02-03T14:42:23.691Z,99370.12
2023-02-03T14:45:36.807Z,99373.95
2023-02-03T14:48:29.857Z,99392.08
2023-02-03T14:51:52.396Z,99393.17
2023-02-03T14:54:31.044Z,99400.44
2023-02-03T14:57:39.984Z,99409.65
2023-02-03T15:00:20.755Z,99411.91
2023-02-03T15:03:09.079Z,99414.00
2023-02-03T15:05:50.197Z,99417.35
2023-02-03T15:08:44.420Z,99421.95
2023-02-03T15:11:32.361Z,99426.17
2023-02-03T15:14:25.593Z,99423.08
2023-02-03T15:16:58.632Z,99428.56
2023-02-03T15:19:41.949Z,99425.45
2023-02-03T15:22:29.756Z,99426.41
2023-02-03T15:25:05.709Z,99428.86
2023-02-03T15:27:36.040Z,99428.03
2023-02-03T15:30:18.748Z,99424.65
2023-02-03T15:33:02.907Z,99429.45
2023-02-03T15:35:34.227Z,99432.69
2023-02-03T15:38:09.008Z,99430.98
2023-02-03T15:40:44.922Z,99439.30
2023-02-03T15:43:38.555Z,99439.65
2023-02-03T15:46:39.347Z,99433.06
2023-02-03T15:49:19.252Z,99440.17
2023-02-03T15:52:17.354Z,99452.37
2023-02-03T15:54:54.720Z,99458.17
2023-02-03T15:57:33.887Z,99459.45
2023-02-03T16:00:30.837Z,99461.39
2023-02-03T16:03:03.568Z,99459.91
2023-02-03T16:05:37.249Z,99457.65
2023-02-03T16:08:51.546Z,99463.74
2023-02-03T16:11:36.845Z,99461.64
2023-02-03T16:14:33.313Z,99467.11
2023-02-03T16:17:06.008Z,99473.11
2023-02-03T16:19:40.286Z,99472.00
2023-02-03T16:22:36.335Z,99474.57
2023-02-03T16:25:26.103Z,99469.19
2023-02-03T16:28:32.592Z,99470.04
2023-02-03T16:31:39.307Z,99468.77
2023-02-03T16:34:36.541Z,99481.14
2023-02-03T16:37:51.045Z,99487.95
2023-02-03T16:40:42.447Z,99486.98
2023-02-03T16:43:32.868Z,99500.52
2023-02-03T16:46:20.062Z,99506.27
2023-02-03T16:49:07.125Z,99513.09
2023-02-03T16:51:42.006Z,99512.17
2023-02-03T16:54:14.515Z,99527.23
2023-02-03T16:56:42.915Z,99530.98
2023-02-03T16:59:11.459Z,99538.36
2023-02-03T17:01:39.972Z,99538.19
2023-02-03T17:04:08.578Z,99559.75
2023-02-03T17:06:41.471Z,99555.92
2023-02-03T17:09:10.220Z,99560.38
2023-02-03T17:11:39.412Z,99563.30
2023-02-03T17:14:07.882Z,99573.63
2023-02-03T17:16:36.227Z,99576.00
2023-02-03T17:19:05.138Z,99571.85
2023-02-03T17:21:33.472Z,99570.09
2023-02-03T17:24:02.035Z,99577.88
2023-02-03T17:26:31.650Z,99579.66
2023-02-03T17:29:03.191Z,99577.15
2023-02-03T17:31:32.620Z,99573.11
2023-02-03T17:34:01.666Z,99581.38
2023-02-03T17:36:30.133Z,99585.93
2023-02-03T17:55:36.001Z,99596.34
2023-02-03T17:58:04.594Z,99597.09
2023-02-03T18:00:33.252Z,99607.69
2023-02-03T18:03:01.891Z,99606.69
2023-02-03T18:05:30.452Z,99601.41
2023-02-03T18:08:03.114Z,99603.60
2023-02-03T18:10:42.557Z,99608.26
2023-02-03T18:13:11.022Z,99606.45
2023-02-03T18:15:39.576Z,99606.20
2023-02-03T18:18:08.976Z,99611.67
2023-02-03T18:20:38.105Z,99613.83
2023-02-03T18:23:06.792Z,99609.30
2023-02-03T18:25:35.941Z,99605.08
2023-02-03T18:28:04.635Z,99598.52
2023-02-03T18:30:33.702Z,99596.34
2023-02-03T18:33:03.825Z,99600.40
2023-02-03T18:35:35.131Z,99592.82
2023-02-03T18:38:05.185Z,99602.48
2023-02-03T18:40:35.747Z,99603.65
2023-02-03T18:43:04.431Z,99600.29
2023-02-03T18:45:34.650Z,99594.38
2023-02-03T18:48:03.177Z,99599.18
2023-02-03T18:50:32.514Z,99601.13
2023-02-03T18:53:02.024Z,99609.45
2023-02-03T18:55:31.644Z,99605.55
2023-02-03T18:58:00.105Z,99610.76
2023-02-03T19:00:29.054Z,99611.60
2023-02-03T19:02:57.723Z,99628.38
2023-02-03T19:05:26.352Z,99625.20
2023-02-03T19:07:54.823Z,99622.11
2023-02-03T19:10:23.234Z,99625.38
2023-02-03T19:12:51.570Z,99620.14
2023-02-03T19:15:21.907Z,99616.00
2023-02-03T19:17:51.889Z,99616.47
2023-02-03T19:20:22.363Z,99610.55
2023-02-03T19:22:51.618Z,99609.98
2023-02-03T19:25:20.344Z,99612.42
2023-02-03T19:27:48.754Z,99610.52
2023-02-03T19:30:17.734Z,99620.23
2023-02-03T19:32:46.161Z,99608.41
2023-02-03T19:35:15.451Z,99609.89
2023-02-03T19:37:43.840Z,99607.10
2023-02-03T19:40:12.394Z,99602.49
2023-02-03T19:42:40.922Z,99605.72
2023-02-03T19:45:10.109Z,99617.89
2023-02-03T19:47:38.529Z,99615.45
2023-02-03T19:50:07.196Z,99618.73
2023-02-03T19:52:36.076Z,99608.88
2023-02-03T19:55:04.897Z,99608.45
2023-02-03T19:57:33.449Z,99612.67
2023-02-03T20:00:03.679Z,99605.27
2023-02-03T20:02:32.103Z,99610.20
2023-02-03T20:05:00.706Z,99608.75
2023-02-03T20:07:32.575Z,99621.23
2023-02-03T20:10:01.168Z,99610.30
2023-02-03T20:12:32.009Z,99606.56
2023-02-03T20:15:01.402Z,99619.98
2023-02-03T20:17:29.973Z,99616.98
2023-02-03T20:19:59.015Z,99617.08
2023-02-03T20:22:27.899Z,99615.03
2023-02-03T20:24:56.343Z,99620.25
2023-02-03T20:27:25.607Z,99621.02
2023-02-03T20:29:56.063Z,99612.23
2023-02-03T20:32:27.981Z,99609.54
2023-02-03T20:34:57.020Z,99608.93
2023-02-03T20:37:25.891Z,99618.89
2023-02-03T20:39:54.325Z,99622.57
2023-02-03T20:42:23.932Z,99615.63
2023-02-03T20:44:52.807Z,99613.94
2023-02-03T20:47:22.881Z,99614.19
2023-02-03T20:49:51.264Z,99618.34
2023-02-03T20:52:21.401Z,99615.56
2023-02-03T20:54:49.907Z,99611.51
2023-02-03T20:57:19.796Z,99614.88
2023-02-03T20:59:50.386Z,99619.64
2023-02-03T21:02:46.965Z,99612.03
2023-02-03T21:05:27.348Z,99607.89
2023-02-03T21:07:55.790Z,99602.52
2023-02-03T21:10:25.692Z,99590.12
2023-02-03T21:12:55.256Z,99597.23
2023-02-03T21:15:30.323Z,99604.52
2023-02-03T21:17:59.110Z,99587.23
2023-02-03T21:20:38.848Z,99593.66
2023-02-03T21:23:12.622Z,99581.95
2023-02-03T21:25:41.999Z,99592.81
2023-02-03T21:28:29.647Z,99587.41
2023-02-03T21:30:59.344Z,99587.35
2023-02-03T21:33:42.260Z,99577.58
2023-02-03T21:36:23.958Z,99578.43
2023-02-03T21:38:59.756Z,99583.48
2023-02-03T21:41:33.720Z,99577.52
2023-02-03T21:44:02.393Z,99592.94
2023-02-03T21:46:33.819Z,99586.90
2023-02-03T21:49:04.271Z,99594.20
2023-02-03T21:51:39.444Z,99589.52
2023-02-03T21:58:41.202Z,99591.46
2023-02-03T22:01:28.595Z,99609.52
2023-02-03T22:03:58.996Z,99607.83
2023-02-03T22:06:44.321Z,99611.34
2023-02-03T22:09:20.336Z,99621.71
2023-02-03T22:11:49.100Z,99619.02
2023-02-03T22:14:20.850Z,99611.42
2023-02-03T22:16:49.596Z,99606.42
2023-02-03T22:19:18.106Z,99608.91
2023-02-03T22:21:54.463Z,99604.10
2023-02-03T22:24:23.229Z,99600.98
2023-02-03T22:26:52.807Z,99599.20
2023-02-03T22:29:23.742Z,99601.95
2023-02-03T22:31:52.281Z,99613.38
2023-02-03T22:34:21.976Z,99603.10
2023-02-03T22:36:50.609Z,99596.02
2023-02-03T22:39:19.217Z,99600.86
2023-02-03T22:41:47.875Z,99601.52
2023-02-03T22:44:17.952Z,99588.20
2023-02-03T22:46:48.056Z,99600.64
2023-02-03T22:49:16.794Z,99585.93
2023-02-03T22:51:45.979Z,99599.25
2023-02-03T22:54:14.392Z,99581.55
2023-02-03T22:56:42.901Z,99573.75
2023-02-03T22:59:11.389Z,99566.52
2023-02-03T23:01:41.629Z,99573.77
2023-02-03T23:04:10.226Z,99574.08
2023-02-03T23:06:38.730Z,99578.35
2023-02-03T23:09:07.122Z,99578.50
2023-02-03T23:11:35.653Z,99580.89
2023-02-03T23:14:14.438Z,99581.59
2023-02-03T23:16:46.963Z,99585.86
2023-02-03T23:19:15.460Z,99588.07
2023-02-03T23:21:44.500Z,99595.02
2023-02-03T23:24:13.022Z,99581.71
2023-02-03T23:26:41.638Z,99582.40
2023-02-03T23:29:11.815Z,99576.48
2023-02-03T23:31:40.422Z,99580.02
2023-02-03T23:34:27.826Z,99578.04
2023-02-03T23:39:41.564Z,99564.33
2023-02-03T23:42:10.084Z,99554.95
2023-02-03T23:44:38.536Z,99553.94
2023-02-03T23:47:07.873Z,99563.30
2023-02-03T23:49:36.964Z,99578.70
2023-02-03T23:52:05.932Z,99591.80
2023-02-03T23:54:54.862Z,99579.48
2023-02-03T23:57:23.413Z,99595.84
2023-02-03T23:59:51.935Z,99606.96
